Time;durP1;ratioP1;P1;durP2;ratioP2;P2;SDS_P1;SDS_P2;PMS_P1;PMS_P2;Temp;Humidity;BMP_temperature;BMP_pressure;BME280_temperature;BME280_humidity;BME280_pressure;Samples;Min_cycle;Max_cycle;Signal;HPM_P1;HPM_P2
2020/12/06 00:01:03;;;;;;;367.13;208.35;;;16.90;67.60;;;;;;5075231;28;20032;-56
2020/12/06 00:03:30;;;;;;;371.48;216.65;;;16.80;67.60;;;;;;5075553;28;20378;-54
2020/12/06 00:05:56;;;;;;;366.42;209.90;;;16.80;67.80;;;;;;5075371;28;20527;-51
2020/12/06 00:08:21;;;;;;;343.05;204.27;;;16.80;67.90;;;;;;5075685;28;20038;-50
2020/12/06 00:10:47;;;;;;;354.23;205.93;;;16.70;67.90;;;;;;5075052;28;20078;-54
2020/12/06 00:13:13;;;;;;;352.20;205.27;;;16.70;67.90;;;;;;5075484;28;20025;-54
2020/12/06 00:15:38;;;;;;;346.40;202.85;;;16.60;67.90;;;;;;5075285;28;20101;-54
2020/12/06 00:18:04;;;;;;;345.55;197.40;;;16.70;68.00;;;;;;5075174;28;20411;-54
2020/12/06 00:20:30;;;;;;;334.60;196.25;;;16.70;67.70;;;;;;5073727;28;20051;-54
2020/12/06 00:22:56;;;;;;;323.73;192.48;;;16.80;67.50;;;;;;5074738;28;20036;-52
2020/12/06 00:25:21;;;;;;;321.05;189.13;;;16.90;67.00;;;;;;5075029;28;20477;-52
2020/12/06 00:27:47;;;;;;;329.42;190.25;;;16.90;66.70;;;;;;5074587;28;20028;-50
2020/12/06 00:30:13;;;;;;;319.38;186.50;;;16.90;66.90;;;;;;5067922;28;20028;-49
2020/12/06 00:32:39;;;;;;;314.75;178.07;;;16.90;66.90;;;;;;5054941;28;20035;-49
2020/12/06 00:35:07;;;;;;;298.05;173.75;;;16.90;66.90;;;;;;5054594;28;20025;-49
2020/12/06 00:37:32;;;;;;;305.70;177.85;;;16.90;67.00;;;;;;5054854;28;20448;-49
2020/12/06 00:39:58;;;;;;;300.33;171.50;;;17.00;67.10;;;;;;5054823;28;20056;-49
2020/12/06 00:42:23;;;;;;;292.35;167.40;;;17.00;67.00;;;;;;5054640;28;20028;-49
2020/12/06 00:44:49;;;;;;;285.75;165.95;;;17.10;66.90;;;;;;5055047;28;20404;-49
2020/12/06 00:47:14;;;;;;;289.35;163.52;;;17.00;66.70;;;;;;5054743;28;20037;-48
2020/12/06 00:49:40;;;;;;;271.60;158.25;;;17.20;66.60;;;;;;5054443;28;20028;-49
2020/12/06 00:52:06;;;;;;;262.80;152.02;;;17.40;65.70;;;;;;5054436;28;20029;-54
2020/12/06 00:54:31;;;;;;;262.95;152.80;;;17.50;65.00;;;;;;5054214;28;20027;-49
2020/12/06 00:56:57;;;;;;;254.57;149.90;;;17.60;64.60;;;;;;5044631;28;20037;-49
2020/12/06 00:59:24;;;;;;;260.55;148.90;;;17.80;64.30;;;;;;5044018;28;20032;-49
2020/12/06 01:01:50;;;;;;;255.73;150.25;;;17.70;64.20;;;;;;5042897;28;20033;-48
2020/12/06 01:04:16;;;;;;;254.63;144.45;;;17.70;64.20;;;;;;5041998;28;20063;-52
2020/12/06 01:06:42;;;;;;;254.95;147.23;;;17.60;64.40;;;;;;5042891;28;20453;-51
2020/12/06 01:09:07;;;;;;;243.75;141.93;;;17.50;64.60;;;;;;5042698;28;20712;-49
2020/12/06 01:11:33;;;;;;;242.38;141.43;;;17.50;64.60;;;;;;5041799;28;20025;-49
2020/12/06 01:13:59;;;;;;;242.25;135.45;;;17.50;64.60;;;;;;5043795;28;20065;-51
2020/12/06 01:16:27;;;;;;;235.77;136.57;;;17.50;64.60;;;;;;5038399;28;20108;-49
2020/12/06 01:18:53;;;;;;;238.52;134.73;;;17.50;64.60;;;;;;5033915;28;20044;-49
2020/12/06 01:21:18;;;;;;;233.70;135.70;;;17.40;64.70;;;;;;5033355;28;20018;-49
2020/12/06 01:23:44;;;;;;;223.20;129.43;;;17.30;64.90;;;;;;5034031;28;20076;-51
2020/12/06 01:26:10;;;;;;;213.13;127.40;;;17.30;64.90;;;;;;5034008;28;20589;-49
2020/12/06 01:28:36;;;;;;;214.57;128.85;;;17.30;65.00;;;;;;5034169;28;20037;-48
2020/12/06 01:31:02;;;;;;;218.40;125.63;;;17.30;65.00;;;;;;5033968;28;20139;-49
2020/12/06 01:33:27;;;;;;;221.32;127.88;;;17.20;65.00;;;;;;5033936;28;20033;-48
2020/12/06 01:35:53;;;;;;;213.32;122.57;;;17.20;65.10;;;;;;5033757;28;20068;-50
2020/12/06 01:38:18;;;;;;;204.45;119.90;;;17.20;65.20;;;;;;5032958;28;20070;-51
2020/12/06 01:40:44;;;;;;;209.23;119.63;;;17.10;65.10;;;;;;5033247;28;20026;-49
2020/12/06 01:43:10;;;;;;;209.65;119.70;;;17.10;65.00;;;;;;5033739;28;20022;-49
2020/12/06 01:45:38;;;;;;;199.73;117.72;;;17.10;65.20;;;;;;5033745;28;20083;-49
2020/12/06 01:48:08;;;;;;;195.20;116.72;;;17.10;65.30;;;;;;5034001;28;20021;-49
2020/12/06 01:50:40;;;;;;;194.82;112.07;;;17.00;65.20;;;;;;5033800;28;20064;-49
2020/12/06 01:53:07;;;;;;;196.10;113.55;;;17.00;65.30;;;;;;5033586;28;20033;-49
2020/12/06 01:55:34;;;;;;;192.55;111.38;;;17.10;65.00;;;;;;5033444;28;20099;-49
2020/12/06 01:58:05;;;;;;;182.38;108.63;;;17.10;65.00;;;;;;5033416;28;20061;-49
2020/12/06 02:00:30;;;;;;;;;;;17.00;64.90;;;;;;5034279;28;20029;-48
2020/12/06 02:02:57;;;;;;;179.00;102.15;;;17.00;65.00;;;;;;5033224;28;19920;-49
2020/12/06 02:05:23;;;;;;;181.05;102.13;;;17.00;65.10;;;;;;5033429;28;20028;-48
2020/12/06 02:07:49;;;;;;;182.13;103.03;;;17.00;64.70;;;;;;5033463;28;20029;-49
2020/12/06 02:10:15;;;;;;;165.50;97.95;;;17.00;64.60;;;;;;5033250;28;20025;-49
2020/12/06 02:12:47;;;;;;;171.80;102.00;;;17.00;64.70;;;;;;5033686;28;20049;-49
2020/12/06 02:15:14;;;;;;;167.95;99.72;;;16.90;65.00;;;;;;5033336;28;20482;-49
2020/12/06 02:17:40;;;;;;;165.73;97.53;;;16.90;65.10;;;;;;5033573;28;20031;-49
2020/12/06 02:20:06;;;;;;;169.52;99.57;;;16.80;65.30;;;;;;5037124;28;20394;-49
2020/12/06 02:22:32;;;;;;;162.98;95.80;;;16.80;65.30;;;;;;5037463;28;20454;-49
2020/12/06 02:24:58;;;;;;;168.88;96.50;;;16.80;65.30;;;;;;5037557;28;20100;-49
2020/12/06 02:27:23;;;;;;;158.05;92.97;;;16.90;65.20;;;;;;5037402;28;20036;-48
2020/12/06 02:29:49;;;;;;;153.70;91.57;;;16.90;64.80;;;;;;5037197;28;20120;-48
2020/12/06 02:32:15;;;;;;;152.55;91.28;;;16.90;64.90;;;;;;5037303;28;20099;-49
2020/12/06 02:34:40;;;;;;;151.98;89.03;;;16.90;65.00;;;;;;5037145;28;20029;-49
2020/12/06 02:37:06;;;;;;;152.18;88.78;;;16.90;64.80;;;;;;5037377;28;20389;-48
2020/12/06 02:39:31;;;;;;;148.00;85.65;;;17.00;64.60;;;;;;5036845;28;20026;-48
2020/12/06 02:41:57;;;;;;;153.52;87.10;;;17.10;64.40;;;;;;5037047;28;20386;-49
2020/12/06 02:44:23;;;;;;;144.35;83.60;;;17.20;64.20;;;;;;5037035;28;20025;-49
2020/12/06 02:46:48;;;;;;;147.40;85.30;;;17.20;63.80;;;;;;5036649;28;20037;-49
2020/12/06 02:49:14;;;;;;;146.00;83.13;;;17.40;63.80;;;;;;5036885;28;20033;-49
2020/12/06 02:51:39;;;;;;;142.30;80.90;;;17.40;63.70;;;;;;5036875;28;20112;-49
2020/12/06 02:54:05;;;;;;;138.07;81.03;;;17.40;63.40;;;;;;5036877;28;20039;-49
2020/12/06 02:56:31;;;;;;;128.52;78.43;;;17.50;63.30;;;;;;5037064;28;20084;-48
2020/12/06 02:58:57;;;;;;;138.50;80.20;;;17.40;63.40;;;;;;5036822;28;20029;-50
2020/12/06 03:01:28;;;;;;;126.00;76.00;;;17.40;63.80;;;;;;5036739;28;20151;-49
2020/12/06 03:03:53;;;;;;;;;;;17.40;64.50;;;;;;5036896;28;20049;-48
2020/12/06 03:06:19;;;;;;;122.78;71.38;;;17.50;63.30;;;;;;5036555;28;20016;-48
2020/12/06 03:08:44;;;;;;;123.13;73.65;;;17.60;63.10;;;;;;5036802;28;20049;-48
2020/12/06 03:11:10;;;;;;;122.88;74.78;;;17.70;62.70;;;;;;5036780;28;20461;-48
2020/12/06 03:13:36;;;;;;;123.18;72.82;;;17.60;62.80;;;;;;5036579;28;20087;-48
2020/12/06 03:16:03;;;;;;;117.68;72.45;;;17.50;62.80;;;;;;5036447;28;20038;-49
2020/12/06 03:18:29;;;;;;;121.57;71.20;;;17.60;62.60;;;;;;5036417;28;20037;-48
2020/12/06 03:20:54;;;;;;;116.40;68.15;;;17.60;62.50;;;;;;5036235;28;20030;-48
2020/12/06 03:23:20;;;;;;;116.45;68.13;;;17.60;62.50;;;;;;5036282;28;20032;-48
2020/12/06 03:25:46;;;;;;;110.68;66.20;;;17.60;62.30;;;;;;5036175;28;20160;-48
2020/12/06 03:28:12;;;;;;;114.22;67.40;;;17.60;62.60;;;;;;5036395;28;20370;-48
2020/12/06 03:30:37;;;;;;;108.88;63.33;;;17.50;62.70;;;;;;5035335;28;20444;-48
2020/12/06 03:33:03;;;;;;;107.53;64.65;;;17.50;62.60;;;;;;5036143;28;20033;-49
2020/12/06 03:35:29;;;;;;;110.15;65.60;;;17.50;62.80;;;;;;5036292;28;20104;-48
2020/12/06 03:37:54;;;;;;;105.88;63.10;;;17.40;62.80;;;;;;5035944;28;20025;-48
2020/12/06 03:40:20;;;;;;;104.55;61.25;;;17.40;62.90;;;;;;5034632;28;20048;-48
2020/12/06 03:42:45;;;;;;;104.15;60.10;;;17.40;63.00;;;;;;5035930;28;20033;-48
2020/12/06 03:45:11;;;;;;;104.43;62.17;;;17.30;63.00;;;;;;5035946;28;20022;-48
2020/12/06 03:47:37;;;;;;;94.72;57.42;;;17.30;63.10;;;;;;5036029;28;20033;-48
2020/12/06 03:50:03;;;;;;;97.95;59.15;;;17.30;63.10;;;;;;5035976;28;20116;-49
2020/12/06 03:52:28;;;;;;;97.57;59.97;;;17.30;63.20;;;;;;5034543;28;20433;-49
2020/12/06 03:54:54;;;;;;;94.57;55.80;;;17.20;63.30;;;;;;5035771;28;20030;-48
2020/12/06 03:57:19;;;;;;;96.53;57.25;;;17.20;63.50;;;;;;5035771;28;20030;-49
2020/12/06 03:59:45;;;;;;;98.28;57.47;;;17.10;63.60;;;;;;5035608;28;20029;-48
2020/12/06 04:02:13;;;;;;;94.72;58.97;;;17.10;63.70;;;;;;5035215;28;20048;-48
2020/12/06 04:04:39;;;;;;;92.32;54.10;;;17.10;63.80;;;;;;5035334;28;20057;-48
2020/12/06 04:07:04;;;;;;;93.60;53.60;;;17.10;63.90;;;;;;5035349;28;20544;-49
2020/12/06 04:09:30;;;;;;;83.93;50.22;;;17.10;63.50;;;;;;5035504;28;20462;-49
2020/12/06 04:11:55;;;;;;;90.22;52.50;;;17.10;63.40;;;;;;5035491;28;20056;-49
2020/12/06 04:14:21;;;;;;;87.88;54.25;;;17.20;63.40;;;;;;5035115;28;20017;-49
2020/12/06 04:16:47;;;;;;;84.65;51.78;;;17.10;63.50;;;;;;5035327;28;20384;-48
2020/12/06 04:19:12;;;;;;;91.85;54.70;;;17.10;63.50;;;;;;5034912;28;20025;-48
2020/12/06 04:21:38;;;;;;;89.13;53.28;;;17.10;63.80;;;;;;5035498;28;20523;-48
2020/12/06 04:24:03;;;;;;;92.20;51.80;;;17.10;63.70;;;;;;5035087;28;20025;-49
2020/12/06 04:26:29;;;;;;;90.03;49.22;;;17.00;63.80;;;;;;5033831;28;20037;-48
2020/12/06 04:28:56;;;;;;;82.82;49.45;;;16.90;63.80;;;;;;5035006;28;20095;-48
2020/12/06 04:31:22;;;;;;;82.30;49.28;;;16.90;64.10;;;;;;5035518;28;20029;-48
2020/12/06 04:33:47;;;;;;;81.97;47.95;;;16.80;64.00;;;;;;5034787;28;20085;-49
2020/12/06 04:36:13;;;;;;;86.00;49.53;;;16.80;64.10;;;;;;5034856;28;20057;-49
2020/12/06 04:38:38;;;;;;;79.65;45.50;;;16.80;64.40;;;;;;5034763;28;20029;-48
2020/12/06 04:41:04;;;;;;;76.00;46.65;;;16.80;64.30;;;;;;5033951;28;20466;-49
2020/12/06 04:43:30;;;;;;;79.80;45.17;;;16.80;64.40;;;;;;5034357;28;20033;-48
2020/12/06 04:45:56;;;;;;;78.13;47.22;;;16.80;64.10;;;;;;5034692;28;20041;-48
2020/12/06 04:48:46;;;;;;;77.88;44.08;;;16.80;64.40;;;;;;5034752;28;20025;-48
2020/12/06 04:51:14;;;;;;;73.32;42.78;;;16.80;64.20;;;;;;5034823;28;20072;-48
2020/12/06 04:53:46;;;;;;;76.70;42.83;;;16.90;64.10;;;;;;5034419;28;20068;-48
2020/12/06 04:56:12;;;;;;;72.78;41.78;;;16.90;63.80;;;;;;5034606;28;20060;-49
2020/12/06 04:58:46;;;;;;;69.65;42.80;;;17.10;63.60;;;;;;5034748;28;20076;-48
2020/12/06 05:01:13;;;;;;;67.30;39.22;;;17.10;63.20;;;;;;5034980;28;20354;-48
2020/12/06 05:03:43;;;;;;;64.85;38.35;;;17.20;63.20;;;;;;5034482;28;20073;-48
2020/12/06 05:06:11;;;;;;;68.82;40.65;;;17.30;62.90;;;;;;5034229;28;20029;-49
2020/12/06 05:08:40;;;;;;;64.95;39.33;;;17.30;62.80;;;;;;5034184;28;20041;-49
2020/12/06 05:11:05;;;;;;;64.57;40.50;;;17.40;62.50;;;;;;5035034;28;20041;-49
2020/12/06 05:13:31;;;;;;;60.45;37.65;;;17.40;62.50;;;;;;5034213;28;20362;-49
2020/12/06 05:15:57;;;;;;;60.25;38.42;;;17.40;62.60;;;;;;5034629;28;20377;-49
2020/12/06 05:18:23;;;;;;;61.33;36.60;;;17.50;62.80;;;;;;5034180;28;20068;-49
2020/12/06 05:20:50;;;;;;;61.75;36.63;;;17.50;62.60;;;;;;5034081;28;20087;-48
2020/12/06 05:23:16;;;;;;;61.60;37.10;;;17.60;62.40;;;;;;5034136;28;20033;-49
2020/12/06 05:25:42;;;;;;;63.55;36.97;;;17.70;62.20;;;;;;5034166;28;20025;-48
2020/12/06 05:28:08;;;;;;;58.97;36.75;;;17.80;61.80;;;;;;5033916;28;20029;-48
2020/12/06 05:30:38;;;;;;;60.05;35.25;;;17.80;61.60;;;;;;5033759;28;20040;-49
2020/12/06 05:33:04;;;;;;;58.33;35.38;;;17.90;61.40;;;;;;5033912;28;20430;-48
2020/12/06 05:35:29;;;;;;;54.83;34.33;;;18.00;61.90;;;;;;5033942;28;20160;-48
2020/12/06 05:37:55;;;;;;;51.95;32.13;;;18.00;60.90;;;;;;5033668;28;20068;-49
2020/12/06 05:40:21;;;;;;;54.45;33.55;;;18.10;60.60;;;;;;5033723;28;20033;-48
2020/12/06 05:42:47;;;;;;;56.15;33.20;;;18.20;60.30;;;;;;5034097;28;20374;-48
2020/12/06 05:45:17;;;;;;;53.70;32.28;;;18.20;60.20;;;;;;5033563;28;20155;-49
2020/12/06 05:47:42;;;;;;;60.08;33.10;;;18.30;60.10;;;;;;5033808;28;20072;-48
2020/12/06 05:50:08;;;;;;;50.05;32.30;;;18.30;59.90;;;;;;5033733;28;20069;-49
2020/12/06 05:52:35;;;;;;;49.00;30.20;;;18.40;59.90;;;;;;5033329;28;20428;-48
2020/12/06 05:55:02;;;;;;;51.92;31.10;;;18.40;59.80;;;;;;5033547;28;20116;-49
2020/12/06 05:57:29;;;;;;;56.30;32.17;;;18.40;59.60;;;;;;5033552;28;20029;-48
2020/12/06 06:00:01;;;;;;;50.35;31.77;;;18.50;59.60;;;;;;5033722;28;20037;-48
2020/12/06 06:02:27;;;;;;;51.65;31.17;;;18.50;59.50;;;;;;5033592;28;20049;-51
2020/12/06 06:05:01;;;;;;;51.65;32.55;;;18.50;59.30;;;;;;5033620;28;20022;-49
2020/12/06 06:07:30;;;;;;;48.85;30.30;;;18.70;58.90;;;;;;5033696;28;20489;-48
2020/12/06 06:10:04;;;;;;;47.17;29.10;;;18.90;58.40;;;;;;5033565;28;20033;-48
2020/12/06 06:12:42;;;;;;;48.33;29.50;;;19.10;57.80;;;;;;5033604;28;20466;-49
2020/12/06 06:15:08;;;;;;;46.65;29.42;;;19.10;57.70;;;;;;5033461;28;20175;-49
2020/12/06 06:17:34;;;;;;;47.13;29.88;;;19.20;57.60;;;;;;5033478;28;20137;-48
2020/12/06 06:19:59;;;;;;;41.42;27.08;;;19.10;57.70;;;;;;5033403;28;20481;-48
2020/12/06 06:22:34;;;;;;;44.47;26.25;;;19.00;58.30;;;;;;5033160;28;20049;-48
2020/12/06 06:25:01;;;;;;;43.53;27.60;;;19.00;58.50;;;;;;5033245;28;20099;-49
2020/12/06 06:27:38;;;;;;;41.17;25.40;;;18.90;58.50;;;;;;5033253;28;20065;-49
2020/12/06 06:30:10;;;;;;;41.25;25.48;;;18.80;58.60;;;;;;5033664;28;20037;-48
2020/12/06 06:32:38;;;;;;;40.70;24.83;;;18.80;58.60;;;;;;5033337;28;20378;-49
2020/12/06 06:35:06;;;;;;;38.78;24.42;;;18.80;58.50;;;;;;5033211;28;20021;-48
2020/12/06 06:37:33;;;;;;;42.83;24.60;;;18.80;58.40;;;;;;5033332;28;20462;-49
2020/12/06 06:40:00;;;;;;;37.92;23.50;;;18.80;58.20;;;;;;5033289;28;20045;-48
2020/12/06 06:42:28;;;;;;;38.60;24.58;;;18.80;58.40;;;;;;5033229;28;20106;-49
2020/12/06 06:45:04;;;;;;;40.25;24.92;;;18.80;58.40;;;;;;5033162;28;20030;-48
2020/12/06 06:47:30;;;;;;;36.92;22.73;;;18.70;58.40;;;;;;5033375;28;20147;-49
2020/12/06 06:49:58;;;;;;;34.85;22.35;;;18.70;58.60;;;;;;5033237;28;20041;-49
2020/12/06 06:52:25;;;;;;;37.03;22.25;;;18.60;58.80;;;;;;5033075;28;20469;-49
2020/12/06 06:54:53;;;;;;;34.33;22.30;;;18.60;58.90;;;;;;5033195;28;20071;-48
2020/12/06 06:57:20;;;;;;;35.67;22.00;;;18.50;59.00;;;;;;5033057;28;20041;-49
2020/12/06 06:59:48;;;;;;;36.40;22.05;;;18.40;59.10;;;;;;5033122;28;20040;-49
2020/12/06 07:02:20;;;;;;;39.58;22.35;;;18.40;59.20;;;;;;5032770;28;20168;-49
2020/12/06 07:04:47;;;;;;;31.08;20.55;;;18.30;59.40;;;;;;5034829;28;20123;-48
2020/12/06 07:07:13;;;;;;;33.88;20.10;;;18.30;59.50;;;;;;5036469;28;20036;-49
2020/12/06 07:09:39;;;;;;;33.25;20.15;;;18.20;59.60;;;;;;5036612;28;20029;-49
2020/12/06 07:12:08;;;;;;;32.83;20.15;;;18.20;59.60;;;;;;5036597;28;20533;-49
2020/12/06 07:14:33;;;;;;;34.30;20.08;;;18.20;59.60;;;;;;5036432;28;20109;-49
2020/12/06 07:16:59;;;;;;;30.35;19.20;;;18.20;59.50;;;;;;5036348;28;20444;-49
2020/12/06 07:19:24;;;;;;;29.15;18.45;;;18.30;59.60;;;;;;5036297;28;20022;-50
2020/12/06 07:21:51;;;;;;;31.17;18.75;;;18.10;59.80;;;;;;5036374;28;20104;-48
2020/12/06 07:24:18;;;;;;;30.45;19.73;;;18.10;59.90;;;;;;5036326;28;20032;-48
2020/12/06 07:26:46;;;;;;;32.55;18.30;;;18.20;59.90;;;;;;5036155;28;20033;-49
2020/12/06 07:29:12;;;;;;;26.98;17.13;;;18.10;60.10;;;;;;5036100;28;20052;-48
2020/12/06 07:31:37;;;;;;;32.30;18.95;;;18.10;60.10;;;;;;5036211;28;20087;-49
2020/12/06 07:34:04;;;;;;;29.40;18.20;;;18.10;60.10;;;;;;5036104;28;20029;-49
2020/12/06 07:36:35;;;;;;;27.98;17.45;;;18.20;60.00;;;;;;5036361;28;20033;-49
2020/12/06 07:39:11;;;;;;;;;;;18.30;59.90;;;;;;5036472;28;20026;-48
2020/12/06 07:41:47;;;;;;;27.55;16.23;;;18.30;59.70;;;;;;5036177;28;20051;-48
2020/12/06 07:44:14;;;;;;;29.80;16.45;;;18.40;59.30;;;;;;5036073;28;20105;-48
2020/12/06 07:46:40;;;;;;;26.40;16.48;;;18.70;58.40;;;;;;5035779;28;20067;-49
2020/12/06 07:49:06;;;;;;;26.30;16.60;;;18.80;58.10;;;;;;5035882;28;20033;-49
2020/12/06 07:51:32;;;;;;;27.13;16.60;;;18.80;58.00;;;;;;5035861;28;20351;-49
2020/12/06 07:54:01;;;;;;;26.27;15.88;;;18.80;57.90;;;;;;5036015;28;20033;-49
2020/12/06 07:56:29;;;;;;;26.90;15.20;;;18.80;58.00;;;;;;5035775;28;20386;-49
2020/12/06 07:59:17;;;;;;;25.80;15.77;;;18.80;58.00;;;;;;5035643;28;20351;-49
2020/12/06 08:01:44;;;;;;;27.40;15.65;;;18.80;58.00;;;;;;5035736;28;20104;-48
2020/12/06 08:04:14;;;;;;;25.15;14.45;;;18.80;58.20;;;;;;5035826;28;20022;-49
2020/12/06 08:06:45;;;;;;;23.43;15.30;;;18.70;58.20;;;;;;5035230;28;20032;-49
2020/12/06 08:09:12;;;;;;;22.15;14.38;;;18.70;58.30;;;;;;5035398;28;20061;-49
2020/12/06 08:11:46;;;;;;;23.85;13.95;;;18.60;58.40;;;;;;5035389;28;20025;-49
2020/12/06 08:14:19;;;;;;;22.55;13.95;;;18.60;58.40;;;;;;5035723;28;20478;-49
2020/12/06 08:17:01;;;;;;;23.50;13.77;;;18.60;58.50;;;;;;5035545;28;20061;-48
2020/12/06 08:19:27;;;;;;;22.10;13.48;;;18.50;58.70;;;;;;5035373;28;20040;-48
2020/12/06 08:22:00;;;;;;;21.02;13.85;;;18.40;58.80;;;;;;5035028;28;20437;-49
2020/12/06 08:24:28;;;;;;;22.80;14.38;;;18.40;59.00;;;;;;5035192;28;20061;-49
2020/12/06 08:26:55;;;;;;;22.52;13.65;;;18.30;58.90;;;;;;5035211;28;20041;-49
2020/12/06 08:29:35;;;;;;;22.35;14.07;;;18.30;59.10;;;;;;5035221;28;20043;-49
2020/12/06 08:32:04;;;;;;;21.88;13.57;;;18.20;59.20;;;;;;5035451;28;20027;-49
2020/12/06 08:34:30;;;;;;;20.13;12.98;;;18.20;59.40;;;;;;5034940;28;20056;-49
2020/12/06 08:37:11;;;;;;;21.42;12.82;;;18.10;59.70;;;;;;5034740;28;20457;-49
2020/12/06 08:39:36;;;;;;;22.70;14.13;;;18.10;59.80;;;;;;5034997;28;20025;-49
2020/12/06 08:42:12;;;;;;;18.38;12.52;;;18.20;59.50;;;;;;5034932;28;20541;-49
2020/12/06 08:44:51;;;;;;;18.40;12.20;;;18.20;59.30;;;;;;5034880;28;20109;-49
2020/12/06 08:47:16;;;;;;;19.00;11.55;;;18.20;59.20;;;;;;5034887;28;20531;-50
2020/12/06 08:49:42;;;;;;;21.05;13.23;;;18.30;59.30;;;;;;5034509;28;20029;-48
2020/12/06 08:52:19;;;;;;;20.77;12.45;;;18.10;59.30;;;;;;5034847;28;20029;-49
2020/12/06 08:54:47;;;;;;;20.42;13.00;;;18.10;59.40;;;;;;5034458;28;20029;-48
2020/12/06 08:57:14;;;;;;;17.50;11.60;;;18.10;59.50;;;;;;5034197;28;20073;-50
2020/12/06 08:59:41;;;;;;;19.65;12.52;;;18.10;59.70;;;;;;5034211;28;20450;-53
2020/12/06 09:02:08;;;;;;;18.80;11.45;;;18.00;59.80;;;;;;5034559;28;20053;-49
2020/12/06 09:04:35;;;;;;;17.52;11.18;;;18.00;59.80;;;;;;5034278;28;20112;-49
2020/12/06 09:07:03;;;;;;;17.77;10.77;;;18.10;59.70;;;;;;5034469;28;20033;-49
2020/12/06 09:09:28;;;;;;;20.00;11.52;;;18.20;59.40;;;;;;5034352;28;20036;-48
2020/12/06 09:11:55;;;;;;;17.58;10.93;;;18.30;59.20;;;;;;5034197;28;20029;-48
2020/12/06 09:14:21;;;;;;;19.17;10.80;;;18.40;59.00;;;;;;5035011;28;20029;-48
2020/12/06 09:16:47;;;;;;;17.73;11.20;;;18.40;59.00;;;;;;5034313;28;20389;-49
2020/12/06 09:19:12;;;;;;;18.90;12.27;;;18.40;59.20;;;;;;5034130;28;20112;-49
2020/12/06 09:21:38;;;;;;;19.10;10.88;;;18.30;59.30;;;;;;5034093;28;20092;-49
2020/12/06 09:24:04;;;;;;;20.77;11.90;;;18.40;59.30;;;;;;5034222;28;20029;-49
2020/12/06 09:26:30;;;;;;;19.83;11.30;;;18.40;59.20;;;;;;5033442;28;20390;-54
2020/12/06 09:28:56;;;;;;;17.80;9.95;;;18.50;60.50;;;;;;5033630;28;20033;-49
2020/12/06 09:31:22;;;;;;;20.15;11.68;;;18.60;59.30;;;;;;5033652;28;20088;-50
2020/12/06 09:33:48;;;;;;;19.42;10.52;;;18.60;58.70;;;;;;5041350;28;20021;-47
2020/12/06 09:36:13;;;;;;;18.92;10.65;;;18.70;58.70;;;;;;5037346;28;20051;-49
2020/12/06 09:38:39;;;;;;;16.50;9.82;;;18.70;59.00;;;;;;5034001;28;20033;-48
2020/12/06 09:41:06;;;;;;;23.40;13.95;;;18.70;58.50;;;;;;5033718;28;20029;-49
2020/12/06 09:43:32;;;;;;;33.85;20.95;;;18.80;57.10;;;;;;5033670;28;20026;-47
2020/12/06 09:45:57;;;;;;;55.33;32.90;;;18.80;56.70;;;;;;5047783;28;20028;-47
2020/12/06 09:48:24;;;;;;;64.60;37.78;;;18.70;56.20;;;;;;5053574;28;20040;-47
2020/12/06 09:50:51;;;;;;;82.03;49.22;;;18.70;56.00;;;;;;5053164;28;20033;-46
2020/12/06 09:53:16;;;;;;;85.53;49.55;;;18.70;55.80;;;;;;5053337;28;20060;-47
2020/12/06 09:55:42;;;;;;;92.88;53.95;;;18.70;55.80;;;;;;5053256;28;20068;-47
2020/12/06 09:58:07;;;;;;;104.00;58.40;;;18.70;54.80;;;;;;5053204;28;20029;-49
2020/12/06 10:00:33;;;;;;;87.53;49.33;;;18.70;54.70;;;;;;5053400;28;20024;-47
2020/12/06 10:02:59;;;;;;;63.78;37.42;;;18.70;54.70;;;;;;5053273;28;20136;-48
2020/12/06 10:05:25;;;;;;;56.95;30.88;;;18.60;55.30;;;;;;5053243;28;20480;-47
2020/12/06 10:07:50;;;;;;;43.75;25.75;;;18.50;56.10;;;;;;5053448;28;20091;-49
2020/12/06 10:10:16;;;;;;;34.90;21.02;;;18.50;57.10;;;;;;5053437;28;20448;-47
2020/12/06 10:12:42;;;;;;;29.15;17.50;;;18.40;56.30;;;;;;5053286;28;20029;-47
2020/12/06 10:15:07;;;;;;;26.33;14.95;;;18.30;55.20;;;;;;5053445;28;20432;-47
2020/12/06 10:17:33;;;;;;;23.00;12.45;;;18.20;54.80;;;;;;5053250;28;20103;-48
2020/12/06 10:19:59;;;;;;;19.38;10.82;;;18.10;53.80;;;;;;5053552;28;20025;-48
2020/12/06 10:22:25;;;;;;;23.33;10.55;;;18.00;53.30;;;;;;5053125;28;20029;-46
2020/12/06 10:24:51;;;;;;;16.88;9.57;;;18.00;52.90;;;;;;5053330;28;20075;-48
2020/12/06 10:27:16;;;;;;;15.77;8.70;;;18.00;52.80;;;;;;5053727;28;20033;-47
2020/12/06 10:29:42;;;;;;;13.02;8.73;;;18.00;53.00;;;;;;5053405;28;20025;-46
2020/12/06 10:32:07;;;;;;;18.63;8.63;;;18.00;52.80;;;;;;5053070;28;20515;-49
2020/12/06 10:34:33;;;;;;;18.70;8.93;;;18.10;52.40;;;;;;5052461;28;20061;-51
2020/12/06 10:36:59;;;;;;;57.42;30.90;;;18.20;52.20;;;;;;5042898;28;20517;-51
2020/12/06 10:39:26;;;;;;;84.35;39.28;;;18.30;51.30;;;;;;5034233;28;20022;-55
2020/12/06 10:41:56;;;;;;;98.05;51.05;;;18.30;51.10;;;;;;5046543;28;20373;-55
2020/12/06 10:44:23;;;;;;;113.22;58.90;;;18.40;50.60;;;;;;5041704;28;20029;-52
2020/12/06 10:46:49;;;;;;;114.65;54.13;;;18.40;50.60;;;;;;5056619;28;20044;-53
2020/12/06 10:49:16;;;;;;;80.68;42.40;;;18.50;49.80;;;;;;5056723;28;20033;-50
2020/12/06 10:51:43;;;;;;;74.43;35.55;;;18.60;49.30;;;;;;5056776;28;20445;-52
2020/12/06 10:54:09;;;;;;;238.02;116.68;;;18.60;49.20;;;;;;5056802;28;20112;-56
2020/12/06 10:56:37;;;;;;;260.60;127.22;;;18.70;49.10;;;;;;5056825;28;20025;-51
2020/12/06 10:59:02;;;;;;;221.27;115.80;;;18.70;48.90;;;;;;5056670;28;20052;-48
2020/12/06 11:01:29;;;;;;;178.48;94.40;;;18.60;48.90;;;;;;5056673;28;20060;-55
2020/12/06 11:03:55;;;;;;;156.13;79.43;;;18.70;49.00;;;;;;5056439;28;20048;-54
2020/12/06 11:06:22;;;;;;;142.48;76.57;;;18.70;49.50;;;;;;5056408;28;20029;-49
2020/12/06 11:08:48;;;;;;;137.70;72.60;;;18.80;50.00;;;;;;5055237;28;20049;-49
2020/12/06 11:11:14;;;;;;;127.75;71.63;;;19.00;50.10;;;;;;5055806;28;20032;-49
2020/12/06 11:13:40;;;;;;;139.05;71.10;;;19.30;50.00;;;;;;5054914;28;20021;-50
2020/12/06 11:16:06;;;;;;;125.80;64.05;;;19.40;50.10;;;;;;5054153;28;20060;-51
2020/12/06 11:18:32;;;;;;;121.40;65.05;;;19.50;50.30;;;;;;5054498;28;20056;-52
2020/12/06 11:20:58;;;;;;;123.32;66.13;;;19.40;50.80;;;;;;5054873;28;20469;-49
2020/12/06 11:23:23;;;;;;;120.30;61.83;;;19.30;51.20;;;;;;5055249;28;20401;-48
2020/12/06 11:25:49;;;;;;;106.95;58.90;;;19.10;51.90;;;;;;5055043;28;20021;-49
2020/12/06 11:28:14;;;;;;;109.35;58.92;;;19.00;52.80;;;;;;5055217;28;20041;-49
2020/12/06 11:30:40;;;;;;;109.68;60.03;;;18.90;53.20;;;;;;5055953;28;20159;-48
2020/12/06 11:33:05;;;;;;;105.75;57.00;;;19.00;53.50;;;;;;5055976;28;20036;-49
2020/12/06 11:35:31;;;;;;;103.22;58.28;;;19.00;53.70;;;;;;5055634;28;20036;-48
2020/12/06 11:37:57;;;;;;;102.47;55.40;;;18.90;53.70;;;;;;5056016;28;20043;-49
2020/12/06 11:40:23;;;;;;;103.93;55.45;;;18.90;53.70;;;;;;5056122;28;20178;-48
2020/12/06 11:42:48;;;;;;;105.68;56.50;;;19.00;53.80;;;;;;5055898;28;20389;-49
2020/12/06 11:45:14;;;;;;;103.75;55.78;;;19.00;53.60;;;;;;5056021;28;20029;-49
2020/12/06 11:47:39;;;;;;;97.32;54.90;;;19.10;53.50;;;;;;5055691;28;20028;-48
2020/12/06 11:50:06;;;;;;;98.40;52.22;;;19.00;53.70;;;;;;5055060;28;20271;-49
2020/12/06 11:52:32;;;;;;;96.15;51.40;;;19.10;53.70;;;;;;5055753;28;20048;-49
2020/12/06 11:54:57;;;;;;;96.20;49.97;;;19.10;53.80;;;;;;5055647;28;20462;-49
2020/12/06 11:57:23;;;;;;;91.40;50.65;;;19.00;54.00;;;;;;5055731;28;20033;-48
2020/12/06 11:59:49;;;;;;;102.30;52.17;;;18.90;54.10;;;;;;5055643;28;20100;-48
2020/12/06 12:02:14;;;;;;;88.18;49.78;;;19.00;54.30;;;;;;5055346;28;20044;-50
2020/12/06 12:04:40;;;;;;;92.45;49.30;;;18.90;54.40;;;;;;5055463;28;20028;-48
2020/12/06 12:07:06;;;;;;;86.50;48.40;;;18.90;54.50;;;;;;5055073;28;20076;-50
2020/12/06 12:09:31;;;;;;;87.93;46.65;;;18.80;54.60;;;;;;5055218;28;20036;-49
2020/12/06 12:11:57;;;;;;;85.25;48.60;;;18.80;54.80;;;;;;5055461;28;20024;-48
2020/12/06 12:14:23;;;;;;;92.80;47.10;;;18.70;54.80;;;;;;5055232;28;20048;-50
2020/12/06 12:16:48;;;;;;;81.25;48.08;;;18.70;55.00;;;;;;5055020;28;20112;-49
2020/12/06 12:19:14;;;;;;;84.90;45.70;;;18.70;55.00;;;;;;5054840;28;20095;-49
2020/12/06 12:21:39;;;;;;;82.97;44.10;;;18.70;55.20;;;;;;5055581;28;20025;-49